createdAt,value
2019-04-05T00:01:59.578Z,6.55
2019-04-05T00:04:26.282Z,6.83
2019-04-05T00:06:52.897Z,7.03
2019-04-05T00:09:19.594Z,6.95
2019-04-05T00:11:46.207Z,6.35
2019-04-05T00:14:12.806Z,7.35
2019-04-05T00:16:39.463Z,7.85
2019-04-05T00:19:06.081Z,6.90
2019-04-05T00:21:32.692Z,7.22
2019-04-05T00:23:59.389Z,7.10
2019-04-05T00:26:27.062Z,7.08
2019-04-05T00:28:53.797Z,7.35
2019-04-05T00:31:20.479Z,7.05
2019-04-05T00:33:47.179Z,7.92
2019-04-05T00:36:13.799Z,8.60
2019-04-05T00:38:40.511Z,8.50
2019-04-05T00:41:07.148Z,8.05
2019-04-05T00:43:33.804Z,8.40
2019-04-05T00:46:00.493Z,8.18
2019-04-05T00:48:27.156Z,9.43
2019-04-05T00:50:53.814Z,8.50
2019-04-05T00:53:20.515Z,7.97
2019-04-05T00:55:47.114Z,8.15
2019-04-05T00:58:13.807Z,8.55
2019-04-05T01:00:40.464Z,8.45
2019-04-05T01:03:07.084Z,8.38
2019-04-05T01:05:33.926Z,7.72
2019-04-05T01:08:00.711Z,7.45
2019-04-05T01:10:27.420Z,7.60
2019-04-05T01:12:54.702Z,6.78
2019-04-05T01:15:21.414Z,6.35
2019-04-05T01:17:48.331Z,6.33
2019-04-05T01:20:14.983Z,6.95
2019-04-05T01:22:43.760Z,6.28
2019-04-05T01:25:10.571Z,6.37
2019-04-05T01:27:39.154Z,6.20
2019-04-05T01:30:08.360Z,6.37
2019-04-05T01:32:34.969Z,5.30
2019-04-05T01:35:01.629Z,6.35
2019-04-05T01:37:28.459Z,6.15
2019-04-05T01:39:55.352Z,6.15
2019-04-05T01:42:22.754Z,6.67
2019-04-05T01:44:51.827Z,5.70
2019-04-05T01:47:17.954Z,6.00
2019-04-05T01:49:44.566Z,6.08
2019-04-05T01:52:11.257Z,5.53
2019-04-05T01:54:37.851Z,5.55
2019-04-05T01:57:04.478Z,5.85
2019-04-05T01:59:31.244Z,6.20
2019-04-05T02:01:58.057Z,6.33
2019-04-05T02:04:24.675Z,6.20
2019-04-05T02:06:52.343Z,7.05
2019-04-05T02:09:19.034Z,6.00
2019-04-05T02:11:45.758Z,6.35
2019-04-05T02:14:12.486Z,6.55
2019-04-05T02:16:39.074Z,6.22
2019-04-05T02:19:05.844Z,6.42
2019-04-05T02:21:32.517Z,6.55
2019-04-05T02:23:59.279Z,6.75
2019-04-05T02:26:26.008Z,6.62
2019-04-05T02:28:53.152Z,6.55
2019-04-05T02:31:19.887Z,6.45
2019-04-05T02:33:46.576Z,6.80
2019-04-05T02:36:13.309Z,6.97
2019-04-05T02:38:39.989Z,6.35
2019-04-05T02:41:07.341Z,7.95
2019-04-05T02:43:35.649Z,6.87
2019-04-05T02:46:03.053Z,7.10
2019-04-05T02:48:33.347Z,7.12
2019-04-05T02:51:03.050Z,6.25
2019-04-05T02:53:30.630Z,6.85
2019-04-05T02:55:57.712Z,7.47
2019-04-05T02:58:25.869Z,7.08
2019-04-05T03:00:52.691Z,6.37
2019-04-05T03:03:19.611Z,6.78
2019-04-05T03:05:46.605Z,6.53
2019-04-05T03:08:13.917Z,7.92
2019-04-05T03:11:02.634Z,7.00
2019-04-05T03:13:32.418Z,6.40
2019-04-05T03:16:02.619Z,6.62
2019-04-05T03:18:30.501Z,6.22
2019-04-05T03:21:00.820Z,6.65
2019-04-05T03:23:29.974Z,6.90
2019-04-05T03:26:00.248Z,6.60
2019-04-05T03:28:28.927Z,6.50
2019-04-05T03:30:55.573Z,6.62
2019-04-05T03:33:22.336Z,6.37
2019-04-05T03:35:49.218Z,6.80
2019-04-05T03:38:16.947Z,6.90
2019-04-05T03:40:44.101Z,6.47
2019-04-05T03:43:11.254Z,6.75
2019-04-05T03:45:38.188Z,6.00
2019-04-05T03:48:04.873Z,6.60
2019-04-05T03:50:31.836Z,6.25
2019-04-05T03:52:58.449Z,6.62
2019-04-05T03:55:25.115Z,6.08
2019-04-05T03:57:51.993Z,6.50
2019-04-05T04:00:18.743Z,6.58
2019-04-05T04:02:45.560Z,7.40
2019-04-05T04:05:12.302Z,7.05
2019-04-05T04:07:38.941Z,5.72
2019-04-05T04:10:09.200Z,5.70
2019-04-05T04:12:35.998Z,6.33
2019-04-05T04:15:14.887Z,6.40
2019-04-05T04:17:43.343Z,5.87
2019-04-05T04:20:22.534Z,6.42
2019-04-05T04:22:49.296Z,6.20
2019-04-05T04:25:16.338Z,6.60
2019-04-05T04:27:43.372Z,6.12
2019-04-05T04:30:09.973Z,6.60
2019-04-05T04:32:37.255Z,6.25
2019-04-05T04:35:05.982Z,6.85
2019-04-05T04:37:32.906Z,6.03
2019-04-05T04:39:59.562Z,5.85
2019-04-05T04:42:26.347Z,6.40
2019-04-05T04:44:53.155Z,6.97
2019-04-05T04:47:26.802Z,6.25
2019-04-05T04:49:48.753Z,6.90
2019-04-05T04:52:15.980Z,7.10
2019-04-05T04:54:42.669Z,6.87
2019-04-05T04:57:09.388Z,5.55
2019-04-05T04:59:36.331Z,7.17
2019-04-05T05:02:03.574Z,6.10
2019-04-05T05:04:30.385Z,6.35
2019-04-05T05:06:57.094Z,5.87
2019-04-05T05:09:23.760Z,6.30
2019-04-05T05:11:50.545Z,6.40
2019-04-05T05:14:17.482Z,6.05
2019-04-05T05:16:44.310Z,6.33
2019-04-05T05:19:11.453Z,5.60
2019-04-05T05:21:38.204Z,6.15
2019-04-05T05:24:05.094Z,5.72
2019-04-05T05:26:31.949Z,5.70
2019-04-05T05:28:58.709Z,5.60
2019-04-05T05:31:25.397Z,5.95
2019-04-05T05:33:52.135Z,6.03
2019-04-05T05:36:19.568Z,6.58
2019-04-05T05:38:46.268Z,5.10
2019-04-05T05:41:12.982Z,5.65
2019-04-05T05:43:39.604Z,5.45
2019-04-05T05:46:06.279Z,5.30
2019-04-05T05:48:33.096Z,5.35
2019-04-05T05:50:59.726Z,5.85
2019-04-05T05:53:26.541Z,6.20
2019-04-05T05:55:53.200Z,7.15
2019-04-05T05:58:20.862Z,7.78
2019-04-05T06:00:47.509Z,7.25
2019-04-05T06:03:16.598Z,7.22
2019-04-05T06:05:42.726Z,8.13
2019-04-05T06:08:09.466Z,7.40
2019-04-05T06:10:36.138Z,7.72
2019-04-05T06:13:06.605Z,8.60
2019-04-05T06:15:31.403Z,8.70
2019-04-05T06:18:04.683Z,9.15
2019-04-05T06:20:26.743Z,8.95
2019-04-05T06:22:53.376Z,9.78
2019-04-05T06:25:20.150Z,9.88
2019-04-05T06:27:46.785Z,9.30
2019-04-05T06:30:13.422Z,9.33
2019-04-05T06:32:40.097Z,10.35
2019-04-05T06:35:07.582Z,10.58
2019-04-05T06:37:34.240Z,11.57
2019-04-05T06:40:00.951Z,11.12
2019-04-05T06:42:27.551Z,11.97
2019-04-05T06:44:54.242Z,11.38
2019-04-05T06:47:20.940Z,12.43
2019-04-05T06:49:47.632Z,12.20
2019-04-05T06:52:14.319Z,11.90
2019-04-05T06:54:41.030Z,10.68
2019-04-05T06:57:07.696Z,12.15
2019-04-05T06:59:34.349Z,12.73
2019-04-05T07:02:01.090Z,10.88
2019-04-05T07:04:30.815Z,11.45
2019-04-05T07:06:56.261Z,10.15
2019-04-05T07:09:22.930Z,10.82
2019-04-05T07:11:49.577Z,11.18
2019-04-05T07:14:16.265Z,11.05
2019-04-05T07:16:43.033Z,11.53
2019-04-05T07:19:09.619Z,12.58
2019-04-05T07:21:36.287Z,10.78
2019-04-05T07:24:03.045Z,10.98
2019-04-05T07:26:29.717Z,10.10
2019-04-05T07:28:56.437Z,10.53
2019-04-05T07:31:23.161Z,10.72
2019-04-05T07:33:49.876Z,9.83
2019-04-05T07:36:16.636Z,9.40
2019-04-05T07:38:43.356Z,10.70
2019-04-05T07:41:09.951Z,11.28
2019-04-05T07:43:36.624Z,10.80
2019-04-05T07:46:03.299Z,10.88
2019-04-05T07:48:30.978Z,12.00
2019-04-05T07:50:57.681Z,11.60
2019-04-05T07:53:24.410Z,10.68
2019-04-05T07:55:51.038Z,11.08
2019-04-05T07:58:17.651Z,11.12
2019-04-05T08:00:47.387Z,9.98
2019-04-05T08:03:14.150Z,11.38
2019-04-05T08:05:40.776Z,9.83
2019-04-05T08:08:11.055Z,10.78
2019-04-05T08:10:37.674Z,10.50
2019-04-05T08:13:05.203Z,10.50
2019-04-05T08:15:32.547Z,11.05
2019-04-05T08:17:59.162Z,11.48
2019-04-05T08:20:25.774Z,12.13
2019-04-05T08:22:52.442Z,11.50
2019-04-05T08:25:19.046Z,10.48
2019-04-05T08:27:45.656Z,9.93
2019-04-05T08:30:12.544Z,9.98
2019-04-05T08:32:39.214Z,10.00
2019-04-05T08:35:05.970Z,9.53
2019-04-05T08:37:32.757Z,9.70
2019-04-05T08:39:59.577Z,10.03
2019-04-05T08:42:27.285Z,10.40
2019-04-05T08:44:53.992Z,9.80
2019-04-05T08:47:22.438Z,9.05
2019-04-05T08:49:49.163Z,8.68
2019-04-05T08:52:15.852Z,9.00
2019-04-05T08:54:42.662Z,9.70
2019-04-05T08:57:09.347Z,9.13
2019-04-05T08:59:36.043Z,9.80
2019-04-05T09:02:02.662Z,8.70
2019-04-05T09:04:29.390Z,9.63
2019-04-05T09:06:56.082Z,9.20
2019-04-05T09:09:22.779Z,8.83
2019-04-05T09:11:49.520Z,10.40
2019-04-05T09:14:16.250Z,9.98
2019-04-05T09:16:42.874Z,9.55
2019-04-05T09:19:09.532Z,9.20
2019-04-05T09:21:40.491Z,8.53
2019-04-05T09:24:05.022Z,8.53
2019-04-05T09:26:31.744Z,8.25
2019-04-05T09:28:58.464Z,7.58
2019-04-05T09:31:25.079Z,7.55
2019-04-05T09:33:51.734Z,6.80
2019-04-05T09:36:18.472Z,7.47
2019-04-05T09:38:45.108Z,8.60
2019-04-05T09:41:11.741Z,8.25
2019-04-05T09:43:38.424Z,7.30
2019-04-05T09:46:05.054Z,7.65
2019-04-05T09:48:31.745Z,10.08
2019-04-05T09:50:58.696Z,8.50
2019-04-05T09:53:25.395Z,8.63
2019-04-05T09:55:52.083Z,7.92
2019-04-05T09:58:18.791Z,8.20
2019-04-05T10:00:45.390Z,7.85
2019-04-05T10:03:12.047Z,8.05
2019-04-05T10:05:38.741Z,8.28
2019-04-05T10:08:06.583Z,8.05
2019-04-05T10:10:33.269Z,7.75
2019-04-05T10:12:59.980Z,7.75
2019-04-05T10:15:29.700Z,6.65
2019-04-05T10:17:56.441Z,4.90
2019-04-05T10:20:23.135Z,4.97
2019-04-05T10:22:49.822Z,3.77
2019-04-05T10:25:16.516Z,3.30
2019-04-05T10:27:43.233Z,3.55
2019-04-05T10:30:11.052Z,3.70
2019-04-05T10:32:37.707Z,4.12
2019-04-05T10:35:04.577Z,5.30
2019-04-05T10:37:31.230Z,5.08
2019-04-05T10:39:58.022Z,5.47
2019-04-05T10:42:28.345Z,4.72
2019-04-05T10:44:54.970Z,4.60
2019-04-05T10:47:21.624Z,4.75
2019-04-05T10:49:48.324Z,4.72
2019-04-05T10:52:15.009Z,3.72
2019-04-05T10:54:41.720Z,3.52
2019-04-05T10:57:08.422Z,3.90
2019-04-05T10:59:35.134Z,4.17
2019-04-05T11:02:01.786Z,3.95
2019-04-05T11:04:28.450Z,4.40
2019-04-05T11:06:55.280Z,3.80
2019-04-05T11:09:21.929Z,3.52
2019-04-05T11:11:48.675Z,3.62
2019-04-05T11:14:15.290Z,3.35
2019-04-05T11:16:41.969Z,3.37
2019-04-05T11:19:08.662Z,3.95
2019-04-05T11:21:35.297Z,4.25
2019-04-05T11:24:01.923Z,3.35
2019-04-05T11:26:28.735Z,3.27
2019-04-05T11:28:55.327Z,2.30
2019-04-05T11:31:22.032Z,2.92
2019-04-05T11:33:49.913Z,3.35
2019-04-05T11:36:16.741Z,4.42
2019-04-05T11:38:44.369Z,4.87
2019-04-05T11:41:11.665Z,4.45
2019-04-05T11:43:39.109Z,3.25
2019-04-05T11:46:05.823Z,4.10
2019-04-05T11:48:33.420Z,4.20
2019-04-05T11:51:00.039Z,4.85
2019-04-05T11:53:26.719Z,4.78
2019-04-05T11:55:53.405Z,5.25
2019-04-05T11:58:20.099Z,5.33
2019-04-05T12:00:52.656Z,4.58
2019-04-05T12:03:21.203Z,5.30
2019-04-05T12:05:47.788Z,5.92
2019-04-05T12:08:14.449Z,5.62
2019-04-05T12:10:41.138Z,5.30
2019-04-05T12:13:07.784Z,5.58
2019-04-05T12:15:35.731Z,5.42
2019-04-05T12:18:04.535Z,5.50
2019-04-05T12:20:33.341Z,5.15
2019-04-05T12:23:00.452Z,4.30
2019-04-05T12:25:27.160Z,4.75
2019-04-05T12:28:05.673Z,4.40
2019-04-05T12:30:24.043Z,4.12
2019-04-05T12:32:50.725Z,4.03
2019-04-05T12:35:21.311Z,3.85
2019-04-05T12:37:50.441Z,3.00
2019-04-05T12:40:16.044Z,3.20
2019-04-05T12:42:43.661Z,3.95
2019-04-05T12:45:14.632Z,3.15
2019-04-05T12:47:39.440Z,3.40
2019-04-05T12:50:07.579Z,3.40
2019-04-05T12:52:34.218Z,2.90
2019-04-05T12:55:00.884Z,3.47
2019-04-05T12:57:27.793Z,3.35
2019-04-05T12:59:56.466Z,3.20
2019-04-05T13:02:32.979Z,2.98
2019-04-05T13:04:52.100Z,3.10
2019-04-05T13:07:20.712Z,3.50
2019-04-05T13:09:47.442Z,3.27
2019-04-05T13:12:14.003Z,3.00
2019-04-05T13:14:40.691Z,2.65
2019-04-05T13:17:07.386Z,0.88
2019-04-05T13:19:34.141Z,0.75
2019-04-05T13:22:02.781Z,0.80
2019-04-05T13:24:29.447Z,1.00
2019-04-05T13:26:56.058Z,0.62
2019-04-05T13:29:22.715Z,0.80
2019-04-05T13:31:49.383Z,0.80
2019-04-05T13:34:18.342Z,1.12
2019-04-05T13:36:44.700Z,0.70
2019-04-05T13:39:11.500Z,1.10
2019-04-05T13:41:38.110Z,1.35
2019-04-05T13:44:06.087Z,0.78
2019-04-05T13:46:32.903Z,0.50
2019-04-05T13:48:59.528Z,0.65
2019-04-05T13:51:30.431Z,0.90
2019-04-05T13:53:55.779Z,0.68
2019-04-05T13:56:22.463Z,0.62
2019-04-05T13:58:49.144Z,0.40
2019-04-05T14:01:15.892Z,0.60
2019-04-05T14:03:42.502Z,0.40
2019-04-05T14:06:10.709Z,0.60
2019-04-05T14:08:41.163Z,1.30
2019-04-05T14:11:08.398Z,0.88
2019-04-05T14:13:37.379Z,0.88
2019-04-05T14:16:06.197Z,0.90
2019-04-05T14:18:33.036Z,0.70
2019-04-05T14:20:59.658Z,0.78
2019-04-05T14:23:26.391Z,1.00
2019-04-05T14:25:53.030Z,1.20
2019-04-05T14:28:19.673Z,0.90
2019-04-05T14:30:46.321Z,0.80
2019-04-05T14:33:12.920Z,0.78
2019-04-05T14:35:39.599Z,0.60
2019-04-05T14:38:06.262Z,0.70
2019-04-05T14:40:33.209Z,0.60
2019-04-05T14:42:59.958Z,0.57
2019-04-05T14:45:26.754Z,0.50
2019-04-05T14:47:57.718Z,0.90
2019-04-05T14:50:22.944Z,0.90
2019-04-05T14:52:49.893Z,1.00
2019-04-05T14:55:16.799Z,0.95
2019-04-05T14:57:43.500Z,1.35
2019-04-05T15:00:10.522Z,1.67
2019-04-05T15:02:37.091Z,1.82
2019-04-05T15:05:05.678Z,1.70
2019-04-05T15:07:32.380Z,1.35
2019-04-05T15:09:59.092Z,1.70
2019-04-05T15:12:28.780Z,2.00
2019-04-05T15:14:54.435Z,2.37
2019-04-05T15:17:21.030Z,2.10
2019-04-05T15:19:47.702Z,1.80
2019-04-05T15:22:14.388Z,2.37
2019-04-05T15:24:41.038Z,4.45
2019-04-05T15:27:07.754Z,4.47
2019-04-05T15:29:34.428Z,5.65
2019-04-05T15:32:01.645Z,5.75
2019-04-05T15:34:29.190Z,4.72
2019-04-05T15:36:56.117Z,4.10
2019-04-05T15:39:22.732Z,4.10
2019-04-05T15:41:49.406Z,4.70
2019-04-05T15:44:16.090Z,5.45
2019-04-05T15:46:42.776Z,5.60
2019-04-05T15:49:09.487Z,5.55
2019-04-05T15:51:36.175Z,4.83
2019-04-05T15:54:02.893Z,5.10
2019-04-05T15:56:33.339Z,4.83
2019-04-05T15:58:58.166Z,4.42
2019-04-05T16:01:24.770Z,4.30
2019-04-05T16:03:51.368Z,4.30
2019-04-05T16:06:18.030Z,5.25
2019-04-05T16:08:44.643Z,8.78
2019-04-05T16:11:11.271Z,7.33
2019-04-05T16:13:38.068Z,6.25
2019-04-05T16:16:04.812Z,8.93
2019-04-05T16:18:31.399Z,6.20
2019-04-05T16:20:58.095Z,11.43
2019-04-05T16:23:24.709Z,12.98
2019-04-05T16:25:51.325Z,8.33
2019-04-05T16:28:18.051Z,6.67
2019-04-05T16:30:44.710Z,5.03
2019-04-05T16:33:11.335Z,16.67
2019-04-05T16:35:39.737Z,17.87
2019-04-05T16:38:06.431Z,4.78
2019-04-05T16:40:33.086Z,3.40
2019-04-05T16:43:02.897Z,4.62
2019-04-05T16:45:28.298Z,4.03
2019-04-05T16:47:55.886Z,2.95
2019-04-05T16:50:22.625Z,2.70
2019-04-05T16:52:49.250Z,2.25
2019-04-05T16:55:15.912Z,2.15
2019-04-05T16:57:42.601Z,2.80
2019-04-05T17:00:11.460Z,1.90
2019-04-05T17:02:38.400Z,2.17
2019-04-05T17:05:05.768Z,1.80
2019-04-05T17:07:32.486Z,2.02
2019-04-05T17:09:59.196Z,2.35
2019-04-05T17:12:26.897Z,2.50
2019-04-05T17:14:53.497Z,2.90
2019-04-05T17:17:20.178Z,2.95
2019-04-05T17:19:46.841Z,4.08
2019-04-05T17:22:13.536Z,4.37
2019-04-05T17:24:40.251Z,4.17
2019-04-05T17:27:06.948Z,2.70
2019-04-05T17:29:33.539Z,2.20
2019-04-05T17:32:00.198Z,2.20
2019-04-05T17:34:26.918Z,2.42
2019-04-05T17:36:53.528Z,2.40
2019-04-05T17:39:20.135Z,4.47
2019-04-05T17:41:46.811Z,6.97
2019-04-05T17:44:13.423Z,8.40
2019-04-05T17:46:40.030Z,7.72
2019-04-05T17:49:06.843Z,5.33
2019-04-05T17:51:33.434Z,4.37
2019-04-05T17:54:00.134Z,3.90
2019-04-05T17:56:27.046Z,8.68
2019-04-05T17:58:53.757Z,4.28
2019-04-05T18:01:20.458Z,3.05
2019-04-05T18:03:47.180Z,3.72
2019-04-05T18:06:13.856Z,3.77
2019-04-05T18:08:40.494Z,5.55
2019-04-05T18:11:07.229Z,4.70
2019-04-05T18:13:33.837Z,3.50
2019-04-05T18:16:00.494Z,4.50
2019-04-05T18:18:27.185Z,6.12
2019-04-05T18:20:53.827Z,6.83
2019-04-05T18:23:25.256Z,5.80
2019-04-05T18:25:49.050Z,4.58
2019-04-05T18:28:15.647Z,3.72
2019-04-05T18:30:42.317Z,3.95
2019-04-05T18:33:08.998Z,3.80
2019-04-05T18:35:35.655Z,3.70
2019-04-05T18:38:02.356Z,4.30
2019-04-05T18:40:39.557Z,3.42
2019-04-05T18:42:57.695Z,3.80
2019-04-05T18:45:24.403Z,3.52
2019-04-05T18:47:51.115Z,3.67
2019-04-05T18:50:17.890Z,3.83
2019-04-05T18:52:44.513Z,3.17
2019-04-05T18:55:11.333Z,3.92
2019-04-05T18:57:37.955Z,3.22
2019-04-05T19:00:06.439Z,2.70
2019-04-05T19:02:33.133Z,3.47
2019-04-05T19:04:59.860Z,3.30
2019-04-05T19:07:26.555Z,3.40
2019-04-05T19:09:53.326Z,3.00
2019-04-05T19:12:19.978Z,2.50
2019-04-05T19:14:46.653Z,3.12
2019-04-05T19:17:23.371Z,3.00
2019-04-05T19:19:41.891Z,3.60
2019-04-05T19:22:08.540Z,7.08
2019-04-05T19:24:35.323Z,10.10
2019-04-05T19:27:03.050Z,7.50
2019-04-05T19:29:29.812Z,4.67
2019-04-05T19:49:16.674Z,4.80
2019-04-05T19:51:43.394Z,5.28
2019-04-05T19:54:10.073Z,6.10
2019-04-05T19:56:36.757Z,5.97
2019-04-05T19:59:03.798Z,6.28
2019-04-05T20:01:30.522Z,4.95
2019-04-05T20:03:57.107Z,5.33
2019-04-05T20:06:23.797Z,5.08
2019-04-05T20:08:50.492Z,5.65
2019-04-05T20:11:18.115Z,4.85
2019-04-05T20:13:44.968Z,4.45
2019-04-05T20:16:11.647Z,3.67
2019-04-05T20:18:38.280Z,4.87
2019-04-05T20:21:05.834Z,4.80
2019-04-05T20:23:32.522Z,4.30
2019-04-05T20:25:59.125Z,4.12
2019-04-05T20:28:25.814Z,3.52
2019-04-05T20:30:52.575Z,3.70
2019-04-05T20:33:19.229Z,3.65
2019-04-05T20:35:45.865Z,3.47
2019-04-05T20:38:12.593Z,3.33
2019-04-05T20:40:39.193Z,3.80
2019-04-05T20:43:05.877Z,4.45
2019-04-05T20:45:32.613Z,4.53
2019-04-05T20:47:59.241Z,4.08
2019-04-05T20:50:26.165Z,4.50
2019-04-05T20:52:53.578Z,3.70
2019-04-05T20:55:46.613Z,3.87
2019-04-05T20:58:28.514Z,5.00
2019-04-05T21:00:59.375Z,6.00
2019-04-05T21:03:26.262Z,9.50
2019-04-05T21:05:52.860Z,11.83
2019-04-05T21:08:19.513Z,9.68
2019-04-05T21:10:46.193Z,5.97
2019-04-05T21:13:12.931Z,4.50
2019-04-05T21:15:39.654Z,4.15
2019-04-05T21:18:06.577Z,4.37
2019-04-05T21:20:50.747Z,3.95
2019-04-05T21:23:20.387Z,4.33
2019-04-05T21:25:47.071Z,3.92
2019-04-05T21:28:13.721Z,4.37
2019-04-05T21:30:40.369Z,4.37
2019-04-05T21:33:07.084Z,4.03
2019-04-05T21:35:33.688Z,4.33
2019-04-05T21:38:00.357Z,4.28
2019-04-05T21:40:27.015Z,3.95
2019-04-05T21:42:53.648Z,4.53
2019-04-05T21:45:20.295Z,5.50
2019-04-05T21:47:47.045Z,5.62
2019-04-05T21:50:13.797Z,4.83
2019-04-05T21:52:40.515Z,4.90
2019-04-05T21:55:07.366Z,4.72
2019-04-05T21:57:33.980Z,4.40
2019-04-05T22:00:00.642Z,4.65
2019-04-05T22:02:29.324Z,5.50
2019-04-05T22:04:56.015Z,4.28
2019-04-05T22:07:22.716Z,3.70
2019-04-05T22:09:49.417Z,4.08
2019-04-05T22:12:16.032Z,4.65
2019-04-05T22:14:42.715Z,3.98
2019-04-05T22:17:10.482Z,4.55
2019-04-05T22:19:37.120Z,4.47
2019-04-05T22:22:03.834Z,3.25
2019-04-05T22:24:30.526Z,3.40
2019-04-05T22:27:00.206Z,3.47
2019-04-05T22:29:27.572Z,3.22
2019-04-05T22:31:54.297Z,3.27
2019-04-05T22:34:20.906Z,3.35
2019-04-05T22:36:47.573Z,3.15
2019-04-05T22:39:14.236Z,3.33
2019-04-05T22:41:40.887Z,2.90
2019-04-05T22:44:07.570Z,3.25
2019-04-05T22:46:34.292Z,3.08
2019-04-05T22:49:00.910Z,3.40
2019-04-05T22:51:28.654Z,3.42
2019-04-05T22:53:55.373Z,3.58
2019-04-05T22:56:22.039Z,3.40
2019-04-05T22:58:48.695Z,3.10
2019-04-05T23:01:15.375Z,2.98
2019-04-05T23:03:42.008Z,3.45
2019-04-05T23:06:08.675Z,3.00
2019-04-05T23:08:35.702Z,3.12
2019-04-05T23:11:02.546Z,2.98
2019-04-05T23:13:29.315Z,2.80
2019-04-05T23:15:56.003Z,2.27
2019-04-05T23:18:22.716Z,2.52
2019-04-05T23:20:49.410Z,2.60
2019-04-05T23:23:16.043Z,2.80
2019-04-05T23:25:42.752Z,2.45
2019-04-05T23:28:09.455Z,2.52
2019-04-05T23:30:36.185Z,2.42
2019-04-05T23:33:02.888Z,2.62
2019-04-05T23:35:29.636Z,2.80
2019-04-05T23:37:56.259Z,2.33
2019-04-05T23:40:22.937Z,2.25
2019-04-05T23:42:49.599Z,2.90
2019-04-05T23:45:16.317Z,2.60
2019-04-05T23:47:43.018Z,2.05
2019-04-05T23:50:11.216Z,1.95
2019-04-05T23:52:37.822Z,2.08
2019-04-05T23:55:05.305Z,2.25
2019-04-05T23:57:32.889Z,2.25
2019-04-05T23:59:59.475Z,2.40
